Huvudsida
METAR-TAF:

METAR-TAF

Flygplatser :

Kirkenes flygplats. Høybuktmoen

Kirkenes, Norge

latitud: 69-44N, longitud: 029-54E, höjd: 9 m

Aktuellt väderrapport

Denna rapport gjordes för 47 minuter sedan, klockan 06:50 UTC
Vind 2 kt varierande vindriktning
Temperatur -13°C
Fuktighet 85%
Tryck 1003 hPa
Sikt: 6000 m
Få moln på en höjd av 200 ft
Spridda moln på en höjd av 1300 ft
Brutna moln på en höjd av 4000 ft
lätt snö

METAR: ENKR 250650Z VRB02KT 6000 -SN FEW002 SCT013 BKN040 M13/M15 Q1003 RMK WIND 731FT 14004KT

Tid: 08:37 (07:37 UTC)

Väderprognos

Denna rapport gjordes för 2 timmar och 37 minuter sedan, klockan 05:00 UTC
Prognos gäller från 25 kl. 06 UTC till 25 kl. 15 UTC
Vind 8 kt från syd
Sikt: 8000 m
Få moln på en höjd av 1000 ft
Brutna moln på en höjd av 3000 ft
lätt snö
Temporärt
från 25 kl. 06 UTC till 25 kl. 15 UTC
Sikt: 4000 m
Brutna moln på en höjd av 1200 ft
lätt snö

TAF: ENKR 250500Z 2506/2515 17008KT 8000 -SN FEW010 BKN030 TEMPO 2506/2515 4000 -SN BKN012

Aktuella väderrapporter och prognoser från 4000 flygplatser (METAR- och TAF-rapporter).

De tillgängliga stationerna syns som gula och röda prickar på kartan.

För musen över prickarna för att se namnen på stationerna.

Klicka sedan för att få väderrapporter och prognoser.

För att ändra kartan: Klicka på de gröna knapparna med ett svart kors på för att zooma in; den gröna knappen med ett streck på för att zooma ut; eller på de gröna pilarna för angränsande kartor.


METAR-TAF: